sensor_id;sensor_type;location;lat;lon;timestamp;P1;durP1;ratioP1;P2;durP2;ratioP2
21426;SDS011;10874;49.452;11.050;2023-08-12T00:00:18;25.33;;;19.70;;
21426;SDS011;10874;49.452;11.050;2023-08-12T00:02:46;63.87;;;47.83;;
21426;SDS011;10874;49.452;11.050;2023-08-12T00:05:13;39.77;;;29.73;;
21426;SDS011;10874;49.452;11.050;2023-08-12T00:07:40;18.50;;;16.07;;
21426;SDS011;10874;49.452;11.050;2023-08-12T00:10:10;4.90;;;4.17;;
21426;SDS011;10874;49.452;11.050;2023-08-12T00:12:38;3.60;;;3.30;;
21426;SDS011;10874;49.452;11.050;2023-08-12T00:15:05;4.03;;;3.63;;
21426;SDS011;10874;49.452;11.050;2023-08-12T00:17:33;5.53;;;3.53;;
21426;SDS011;10874;49.452;11.050;2023-08-12T00:20:00;5.67;;;3.60;;
21426;SDS011;10874;49.452;11.050;2023-08-12T00:22:26;4.13;;;3.40;;
21426;SDS011;10874;49.452;11.050;2023-08-12T00:24:53;3.57;;;3.27;;
21426;SDS011;10874;49.452;11.050;2023-08-12T00:27:20;3.60;;;3.30;;
21426;SDS011;10874;49.452;11.050;2023-08-12T00:29:47;3.97;;;3.13;;
21426;SDS011;10874;49.452;11.050;2023-08-12T00:32:13;4.00;;;3.57;;
21426;SDS011;10874;49.452;11.050;2023-08-12T00:34:40;3.90;;;3.50;;
21426;SDS011;10874;49.452;11.050;2023-08-12T00:37:07;4.57;;;3.83;;
21426;SDS011;10874;49.452;11.050;2023-08-12T00:39:34;5.00;;;3.60;;
21426;SDS011;10874;49.452;11.050;2023-08-12T00:42:02;3.90;;;2.83;;
21426;SDS011;10874;49.452;11.050;2023-08-12T00:44:28;3.60;;;3.20;;
21426;SDS011;10874;49.452;11.050;2023-08-12T00:46:55;3.37;;;3.07;;
21426;SDS011;10874;49.452;11.050;2023-08-12T00:49:23;3.60;;;3.30;;
21426;SDS011;10874;49.452;11.050;2023-08-12T00:51:52;3.87;;;3.53;;
21426;SDS011;10874;49.452;11.050;2023-08-12T00:54:21;4.33;;;3.33;;
21426;SDS011;10874;49.452;11.050;2023-08-12T00:56:49;3.90;;;3.60;;
21426;SDS011;10874;49.452;11.050;2023-08-12T00:59:16;4.43;;;4.03;;
21426;SDS011;10874;49.452;11.050;2023-08-12T01:01:44;5.07;;;4.40;;
21426;SDS011;10874;49.452;11.050;2023-08-12T01:04:11;4.10;;;3.70;;
21426;SDS011;10874;49.452;11.050;2023-08-12T01:06:38;4.73;;;3.50;;
21426;SDS011;10874;49.452;11.050;2023-08-12T01:09:05;3.70;;;3.40;;
21426;SDS011;10874;49.452;11.050;2023-08-12T01:14:19;4.17;;;3.77;;
21426;SDS011;10874;49.452;11.050;2023-08-12T01:16:49;5.07;;;3.80;;
21426;SDS011;10874;49.452;11.050;2023-08-12T01:19:21;4.07;;;3.67;;
21426;SDS011;10874;49.452;11.050;2023-08-12T01:21:51;5.57;;;3.63;;
21426;SDS011;10874;49.452;11.050;2023-08-12T01:24:21;4.17;;;3.43;;
21426;SDS011;10874;49.452;11.050;2023-08-12T01:26:47;4.10;;;3.50;;
21426;SDS011;10874;49.452;11.050;2023-08-12T01:29:14;6.40;;;3.97;;
21426;SDS011;10874;49.452;11.050;2023-08-12T01:34:47;4.97;;;3.83;;
21426;SDS011;10874;49.452;11.050;2023-08-12T01:37:17;5.87;;;3.70;;
21426;SDS011;10874;49.452;11.050;2023-08-12T01:39:48;4.37;;;3.50;;
21426;SDS011;10874;49.452;11.050;2023-08-12T01:42:16;4.03;;;3.50;;
21426;SDS011;10874;49.452;11.050;2023-08-12T01:44:44;4.13;;;3.73;;
21426;SDS011;10874;49.452;11.050;2023-08-12T01:47:11;3.93;;;3.60;;
21426;SDS011;10874;49.452;11.050;2023-08-12T01:49:39;4.23;;;3.53;;
21426;SDS011;10874;49.452;11.050;2023-08-12T01:52:05;3.73;;;3.40;;
21426;SDS011;10874;49.452;11.050;2023-08-12T01:54:32;3.80;;;3.50;;
21426;SDS011;10874;49.452;11.050;2023-08-12T01:57:02;4.60;;;3.83;;
21426;SDS011;10874;49.452;11.050;2023-08-12T01:59:29;5.37;;;3.90;;
21426;SDS011;10874;49.452;11.050;2023-08-12T02:01:56;5.33;;;3.90;;
21426;SDS011;10874;49.452;11.050;2023-08-12T02:04:25;4.20;;;3.80;;
21426;SDS011;10874;49.452;11.050;2023-08-12T02:06:52;4.00;;;3.70;;
21426;SDS011;10874;49.452;11.050;2023-08-12T02:09:19;4.77;;;4.13;;
21426;SDS011;10874;49.452;11.050;2023-08-12T02:11:46;4.50;;;3.70;;
21426;SDS011;10874;49.452;11.050;2023-08-12T02:14:13;4.50;;;3.90;;
21426;SDS011;10874;49.452;11.050;2023-08-12T02:16:40;4.13;;;3.73;;
21426;SDS011;10874;49.452;11.050;2023-08-12T02:19:07;4.27;;;3.87;;
21426;SDS011;10874;49.452;11.050;2023-08-12T02:21:33;5.13;;;4.00;;
21426;SDS011;10874;49.452;11.050;2023-08-12T02:24:00;4.67;;;3.37;;
21426;SDS011;10874;49.452;11.050;2023-08-12T02:26:27;4.87;;;3.70;;
21426;SDS011;10874;49.452;11.050;2023-08-12T02:28:53;4.50;;;3.77;;
21426;SDS011;10874;49.452;11.050;2023-08-12T02:31:21;5.77;;;3.37;;
21426;SDS011;10874;49.452;11.050;2023-08-12T02:33:48;4.60;;;3.87;;
21426;SDS011;10874;49.452;11.050;2023-08-12T02:36:16;4.57;;;3.70;;
21426;SDS011;10874;49.452;11.050;2023-08-12T02:38:43;4.00;;;3.37;;
21426;SDS011;10874;49.452;11.050;2023-08-12T02:41:10;3.90;;;3.50;;
21426;SDS011;10874;49.452;11.050;2023-08-12T02:43:36;4.03;;;3.63;;
21426;SDS011;10874;49.452;11.050;2023-08-12T02:46:03;4.07;;;3.43;;
21426;SDS011;10874;49.452;11.050;2023-08-12T02:48:30;3.93;;;3.63;;
21426;SDS011;10874;49.452;11.050;2023-08-12T02:50:57;3.90;;;3.50;;
21426;SDS011;10874;49.452;11.050;2023-08-12T02:53:23;4.00;;;3.63;;
21426;SDS011;10874;49.452;11.050;2023-08-12T02:55:50;4.27;;;3.60;;
21426;SDS011;10874;49.452;11.050;2023-08-12T02:58:17;4.13;;;3.73;;
21426;SDS011;10874;49.452;11.050;2023-08-12T03:00:44;5.00;;;3.53;;
21426;SDS011;10874;49.452;11.050;2023-08-12T03:03:11;4.20;;;3.53;;
21426;SDS011;10874;49.452;11.050;2023-08-12T03:05:38;4.63;;;3.87;;
21426;SDS011;10874;49.452;11.050;2023-08-12T03:08:05;5.20;;;3.57;;
21426;SDS011;10874;49.452;11.050;2023-08-12T03:10:35;4.20;;;3.80;;
21426;SDS011;10874;49.452;11.050;2023-08-12T03:13:02;4.77;;;3.57;;
21426;SDS011;10874;49.452;11.050;2023-08-12T03:15:29;4.13;;;3.83;;
21426;SDS011;10874;49.452;11.050;2023-08-12T03:17:56;4.00;;;3.60;;
21426;SDS011;10874;49.452;11.050;2023-08-12T03:20:23;3.93;;;3.43;;
21426;SDS011;10874;49.452;11.050;2023-08-12T03:22:50;4.07;;;3.77;;
21426;SDS011;10874;49.452;11.050;2023-08-12T03:25:17;5.03;;;3.90;;
21426;SDS011;10874;49.452;11.050;2023-08-12T03:27:45;5.10;;;3.70;;
21426;SDS011;10874;49.452;11.050;2023-08-12T03:30:11;4.93;;;3.80;;
21426;SDS011;10874;49.452;11.050;2023-08-12T03:32:41;4.10;;;3.47;;
21426;SDS011;10874;49.452;11.050;2023-08-12T03:35:08;4.57;;;3.63;;
21426;SDS011;10874;49.452;11.050;2023-08-12T03:37:35;5.57;;;3.80;;
21426;SDS011;10874;49.452;11.050;2023-08-12T03:40:02;4.70;;;3.90;;
21426;SDS011;10874;49.452;11.050;2023-08-12T03:42:30;3.83;;;3.47;;
21426;SDS011;10874;49.452;11.050;2023-08-12T03:45:00;4.10;;;3.70;;
21426;SDS011;10874;49.452;11.050;2023-08-12T03:47:27;3.90;;;3.53;;
21426;SDS011;10874;49.452;11.050;2023-08-12T03:49:53;6.17;;;3.80;;
21426;SDS011;10874;49.452;11.050;2023-08-12T03:52:21;6.37;;;4.20;;
21426;SDS011;10874;49.452;11.050;2023-08-12T03:54:48;5.33;;;3.60;;
21426;SDS011;10874;49.452;11.050;2023-08-12T03:57:15;3.90;;;3.60;;
21426;SDS011;10874;49.452;11.050;2023-08-12T03:59:42;4.20;;;3.80;;
21426;SDS011;10874;49.452;11.050;2023-08-12T04:02:10;5.47;;;3.50;;
21426;SDS011;10874;49.452;11.050;2023-08-12T04:04:37;4.23;;;3.50;;
21426;SDS011;10874;49.452;11.050;2023-08-12T04:07:04;3.70;;;3.30;;
21426;SDS011;10874;49.452;11.050;2023-08-12T04:09:30;3.57;;;3.27;;
21426;SDS011;10874;49.452;11.050;2023-08-12T04:11:57;3.73;;;3.43;;
21426;SDS011;10874;49.452;11.050;2023-08-12T04:14:24;4.30;;;3.30;;
21426;SDS011;10874;49.452;11.050;2023-08-12T04:16:50;4.00;;;3.37;;
21426;SDS011;10874;49.452;11.050;2023-08-12T04:19:17;4.70;;;3.30;;
21426;SDS011;10874;49.452;11.050;2023-08-12T04:21:44;3.83;;;3.53;;
21426;SDS011;10874;49.452;11.050;2023-08-12T04:24:13;3.83;;;3.43;;
21426;SDS011;10874;49.452;11.050;2023-08-12T04:26:40;3.90;;;3.50;;
21426;SDS011;10874;49.452;11.050;2023-08-12T04:29:06;3.80;;;3.50;;
21426;SDS011;10874;49.452;11.050;2023-08-12T04:31:36;3.63;;;3.33;;
21426;SDS011;10874;49.452;11.050;2023-08-12T04:34:03;5.53;;;3.30;;
21426;SDS011;10874;49.452;11.050;2023-08-12T04:36:31;5.60;;;3.43;;
21426;SDS011;10874;49.452;11.050;2023-08-12T04:39:01;4.60;;;3.57;;
21426;SDS011;10874;49.452;11.050;2023-08-12T04:41:28;5.30;;;4.17;;
21426;SDS011;10874;49.452;11.050;2023-08-12T04:43:56;4.80;;;3.93;;
21426;SDS011;10874;49.452;11.050;2023-08-12T04:46:26;5.13;;;3.67;;
21426;SDS011;10874;49.452;11.050;2023-08-12T04:48:53;4.43;;;3.47;;
21426;SDS011;10874;49.452;11.050;2023-08-12T04:51:20;5.50;;;3.63;;
21426;SDS011;10874;49.452;11.050;2023-08-12T04:53:47;5.07;;;3.57;;
21426;SDS011;10874;49.452;11.050;2023-08-12T04:56:14;5.43;;;3.60;;
21426;SDS011;10874;49.452;11.050;2023-08-12T04:58:41;4.03;;;3.57;;
21426;SDS011;10874;49.452;11.050;2023-08-12T05:01:09;4.40;;;3.27;;
21426;SDS011;10874;49.452;11.050;2023-08-12T05:03:37;3.87;;;3.50;;
21426;SDS011;10874;49.452;11.050;2023-08-12T05:06:04;3.57;;;3.10;;
21426;SDS011;10874;49.452;11.050;2023-08-12T05:08:31;5.87;;;3.30;;
21426;SDS011;10874;49.452;11.050;2023-08-12T05:10:58;3.80;;;3.40;;
21426;SDS011;10874;49.452;11.050;2023-08-12T05:13:24;5.77;;;3.20;;
21426;SDS011;10874;49.452;11.050;2023-08-12T05:15:51;3.67;;;2.97;;
21426;SDS011;10874;49.452;11.050;2023-08-12T05:18:18;4.07;;;3.23;;
21426;SDS011;10874;49.452;11.050;2023-08-12T05:20:45;3.97;;;3.30;;
21426;SDS011;10874;49.452;11.050;2023-08-12T05:23:13;3.43;;;3.00;;
21426;SDS011;10874;49.452;11.050;2023-08-12T05:25:41;3.97;;;3.50;;
21426;SDS011;10874;49.452;11.050;2023-08-12T05:28:08;7.03;;;3.47;;
21426;SDS011;10874;49.452;11.050;2023-08-12T05:30:35;4.63;;;3.50;;
21426;SDS011;10874;49.452;11.050;2023-08-12T05:33:02;4.57;;;3.37;;
21426;SDS011;10874;49.452;11.050;2023-08-12T05:35:35;5.33;;;3.80;;
21426;SDS011;10874;49.452;11.050;2023-08-12T05:38:02;4.00;;;3.33;;
21426;SDS011;10874;49.452;11.050;2023-08-12T05:40:29;5.03;;;3.77;;
21426;SDS011;10874;49.452;11.050;2023-08-12T05:42:56;4.40;;;3.17;;
21426;SDS011;10874;49.452;11.050;2023-08-12T05:45:25;3.33;;;3.03;;
21426;SDS011;10874;49.452;11.050;2023-08-12T05:47:52;4.10;;;3.07;;
21426;SDS011;10874;49.452;11.050;2023-08-12T05:50:19;4.10;;;3.37;;
21426;SDS011;10874;49.452;11.050;2023-08-12T05:52:46;4.93;;;3.60;;
21426;SDS011;10874;49.452;11.050;2023-08-12T05:55:12;3.90;;;3.17;;
21426;SDS011;10874;49.452;11.050;2023-08-12T05:57:39;2.80;;;2.53;;
21426;SDS011;10874;49.452;11.050;2023-08-12T06:00:06;3.20;;;2.87;;
21426;SDS011;10874;49.452;11.050;2023-08-12T06:02:39;3.00;;;2.80;;
21426;SDS011;10874;49.452;11.050;2023-08-12T06:05:06;2.90;;;2.63;;
21426;SDS011;10874;49.452;11.050;2023-08-12T06:07:33;2.80;;;2.60;;
21426;SDS011;10874;49.452;11.050;2023-08-12T06:10:00;3.43;;;2.70;;
21426;SDS011;10874;49.452;11.050;2023-08-12T06:12:27;2.77;;;2.57;;
21426;SDS011;10874;49.452;11.050;2023-08-12T06:14:54;3.00;;;2.70;;
21426;SDS011;10874;49.452;11.050;2023-08-12T06:17:21;2.90;;;2.70;;
21426;SDS011;10874;49.452;11.050;2023-08-12T06:19:48;3.00;;;2.70;;
21426;SDS011;10874;49.452;11.050;2023-08-12T06:22:14;4.00;;;2.67;;
21426;SDS011;10874;49.452;11.050;2023-08-12T06:24:41;3.03;;;2.70;;
21426;SDS011;10874;49.452;11.050;2023-08-12T06:27:08;3.87;;;2.90;;
21426;SDS011;10874;49.452;11.050;2023-08-12T06:29:35;2.97;;;2.77;;
21426;SDS011;10874;49.452;11.050;2023-08-12T06:32:01;3.20;;;2.80;;
21426;SDS011;10874;49.452;11.050;2023-08-12T06:34:28;4.10;;;2.90;;
21426;SDS011;10874;49.452;11.050;2023-08-12T06:36:55;3.00;;;2.57;;
21426;SDS011;10874;49.452;11.050;2023-08-12T06:39:22;3.63;;;3.07;;
21426;SDS011;10874;49.452;11.050;2023-08-12T06:41:48;3.60;;;3.00;;
21426;SDS011;10874;49.452;11.050;2023-08-12T06:44:16;3.33;;;3.00;;
21426;SDS011;10874;49.452;11.050;2023-08-12T06:46:42;4.80;;;2.90;;
21426;SDS011;10874;49.452;11.050;2023-08-12T06:49:09;2.87;;;2.67;;
21426;SDS011;10874;49.452;11.050;2023-08-12T06:51:36;4.80;;;3.17;;
21426;SDS011;10874;49.452;11.050;2023-08-12T06:54:03;2.90;;;2.70;;
21426;SDS011;10874;49.452;11.050;2023-08-12T06:56:30;2.73;;;2.50;;
21426;SDS011;10874;49.452;11.050;2023-08-12T06:58:56;3.87;;;3.23;;
21426;SDS011;10874;49.452;11.050;2023-08-12T07:01:23;3.23;;;2.93;;
21426;SDS011;10874;49.452;11.050;2023-08-12T07:03:50;3.23;;;2.73;;
21426;SDS011;10874;49.452;11.050;2023-08-12T07:06:16;3.57;;;3.07;;
21426;SDS011;10874;49.452;11.050;2023-08-12T07:08:43;4.57;;;3.20;;
21426;SDS011;10874;49.452;11.050;2023-08-12T07:11:10;3.83;;;3.10;;
21426;SDS011;10874;49.452;11.050;2023-08-12T07:13:37;5.53;;;2.67;;
21426;SDS011;10874;49.452;11.050;2023-08-12T07:16:03;2.97;;;2.67;;
21426;SDS011;10874;49.452;11.050;2023-08-12T07:18:30;4.57;;;3.03;;
21426;SDS011;10874;49.452;11.050;2023-08-12T07:20:57;3.27;;;2.90;;
21426;SDS011;10874;49.452;11.050;2023-08-12T07:23:27;3.10;;;2.90;;
21426;SDS011;10874;49.452;11.050;2023-08-12T07:25:54;3.00;;;2.70;;
21426;SDS011;10874;49.452;11.050;2023-08-12T07:28:21;3.83;;;2.70;;
21426;SDS011;10874;49.452;11.050;2023-08-12T07:30:48;4.43;;;2.93;;
21426;SDS011;10874;49.452;11.050;2023-08-12T07:33:15;4.43;;;3.07;;
21426;SDS011;10874;49.452;11.050;2023-08-12T07:35:42;3.70;;;2.90;;
21426;SDS011;10874;49.452;11.050;2023-08-12T07:38:09;3.40;;;3.10;;
21426;SDS011;10874;49.452;11.050;2023-08-12T07:40:36;3.23;;;2.93;;
21426;SDS011;10874;49.452;11.050;2023-08-12T07:43:06;3.10;;;2.90;;
21426;SDS011;10874;49.452;11.050;2023-08-12T07:45:33;3.23;;;2.93;;
21426;SDS011;10874;49.452;11.050;2023-08-12T07:48:00;3.00;;;2.80;;
21426;SDS011;10874;49.452;11.050;2023-08-12T07:50:27;4.17;;;2.93;;
21426;SDS011;10874;49.452;11.050;2023-08-12T07:52:53;3.13;;;2.83;;
21426;SDS011;10874;49.452;11.050;2023-08-12T07:55:20;4.20;;;2.73;;
21426;SDS011;10874;49.452;11.050;2023-08-12T07:57:48;2.70;;;2.50;;
21426;SDS011;10874;49.452;11.050;2023-08-12T08:00:15;2.70;;;2.50;;
21426;SDS011;10874;49.452;11.050;2023-08-12T08:02:42;3.10;;;2.90;;
21426;SDS011;10874;49.452;11.050;2023-08-12T08:05:09;3.27;;;2.80;;
21426;SDS011;10874;49.452;11.050;2023-08-12T08:07:36;3.00;;;2.73;;
21426;SDS011;10874;49.452;11.050;2023-08-12T08:10:02;4.97;;;2.80;;
21426;SDS011;10874;49.452;11.050;2023-08-12T08:12:29;4.50;;;3.10;;
21426;SDS011;10874;49.452;11.050;2023-08-12T08:14:56;7.97;;;6.93;;
21426;SDS011;10874;49.452;11.050;2023-08-12T08:17:23;22.60;;;19.53;;
21426;SDS011;10874;49.452;11.050;2023-08-12T08:19:50;20.63;;;18.43;;
21426;SDS011;10874;49.452;11.050;2023-08-12T08:22:16;4.83;;;4.07;;
21426;SDS011;10874;49.452;11.050;2023-08-12T08:24:44;3.63;;;3.30;;
21426;SDS011;10874;49.452;11.050;2023-08-12T08:27:11;3.83;;;2.90;;
21426;SDS011;10874;49.452;11.050;2023-08-12T08:29:37;2.80;;;2.57;;
21426;SDS011;10874;49.452;11.050;2023-08-12T08:32:04;3.23;;;2.80;;
21426;SDS011;10874;49.452;11.050;2023-08-12T08:34:31;4.23;;;2.73;;
21426;SDS011;10874;49.452;11.050;2023-08-12T08:36:58;3.60;;;2.90;;
21426;SDS011;10874;49.452;11.050;2023-08-12T08:39:25;3.70;;;3.00;;
21426;SDS011;10874;49.452;11.050;2023-08-12T08:41:52;3.20;;;2.90;;
21426;SDS011;10874;49.452;11.050;2023-08-12T08:44:21;2.70;;;2.50;;
21426;SDS011;10874;49.452;11.050;2023-08-12T08:46:51;5.40;;;3.00;;
21426;SDS011;10874;49.452;11.050;2023-08-12T08:49:19;4.13;;;2.97;;
21426;SDS011;10874;49.452;11.050;2023-08-12T08:51:46;2.70;;;2.50;;
21426;SDS011;10874;49.452;11.050;2023-08-12T08:54:13;3.50;;;3.17;;
21426;SDS011;10874;49.452;11.050;2023-08-12T08:56:40;4.50;;;2.80;;
21426;SDS011;10874;49.452;11.050;2023-08-12T08:59:23;3.60;;;2.73;;
21426;SDS011;10874;49.452;11.050;2023-08-12T09:01:50;3.97;;;3.00;;
21426;SDS011;10874;49.452;11.050;2023-08-12T09:04:18;3.07;;;2.87;;
21426;SDS011;10874;49.452;11.050;2023-08-12T09:06:45;3.13;;;2.90;;
21426;SDS011;10874;49.452;11.050;2023-08-12T09:09:13;3.63;;;3.33;;
21426;SDS011;10874;49.452;11.050;2023-08-12T09:11:41;3.43;;;3.13;;
21426;SDS011;10874;49.452;11.050;2023-08-12T09:14:07;3.30;;;2.90;;
21426;SDS011;10874;49.452;11.050;2023-08-12T09:16:35;4.40;;;3.43;;
21426;SDS011;10874;49.452;11.050;2023-08-12T09:19:02;3.10;;;2.90;;
21426;SDS011;10874;49.452;11.050;2023-08-12T09:21:29;3.83;;;3.20;;
21426;SDS011;10874;49.452;11.050;2023-08-12T09:23:56;3.20;;;2.90;;
21426;SDS011;10874;49.452;11.050;2023-08-12T09:26:23;2.93;;;2.63;;
21426;SDS011;10874;49.452;11.050;2023-08-12T09:28:49;3.00;;;2.80;;
21426;SDS011;10874;49.452;11.050;2023-08-12T09:31:26;3.00;;;2.77;;
21426;SDS011;10874;49.452;11.050;2023-08-12T09:33:58;3.87;;;2.97;;
21426;SDS011;10874;49.452;11.050;2023-08-12T09:36:27;3.87;;;3.43;;
21426;SDS011;10874;49.452;11.050;2023-08-12T09:38:54;3.93;;;3.30;;
21426;SDS011;10874;49.452;11.050;2023-08-12T09:41:22;3.20;;;3.00;;
21426;SDS011;10874;49.452;11.050;2023-08-12T09:43:50;4.53;;;3.20;;
21426;SDS011;10874;49.452;11.050;2023-08-12T09:46:17;4.03;;;3.10;;
21426;SDS011;10874;49.452;11.050;2023-08-12T09:48:44;3.73;;;2.80;;
21426;SDS011;10874;49.452;11.050;2023-08-12T09:51:10;3.03;;;2.70;;
21426;SDS011;10874;49.452;11.050;2023-08-12T09:53:37;4.07;;;2.97;;
21426;SDS011;10874;49.452;11.050;2023-08-12T09:56:07;4.60;;;2.93;;
21426;SDS011;10874;49.452;11.050;2023-08-12T09:58:35;3.07;;;2.77;;
21426;SDS011;10874;49.452;11.050;2023-08-12T10:01:03;5.00;;;2.90;;
21426;SDS011;10874;49.452;11.050;2023-08-12T10:03:34;4.30;;;3.03;;
21426;SDS011;10874;49.452;11.050;2023-08-12T10:06:04;4.03;;;3.03;;
21426;SDS011;10874;49.452;11.050;2023-08-12T10:08:31;3.47;;;3.17;;
21426;SDS011;10874;49.452;11.050;2023-08-12T10:10:59;3.13;;;2.93;;
21426;SDS011;10874;49.452;11.050;2023-08-12T10:13:39;3.83;;;3.53;;
21426;SDS011;10874;49.452;11.050;2023-08-12T10:16:06;3.22;;;2.92;;
21426;SDS011;10874;49.452;11.050;2023-08-12T10:18:34;3.87;;;2.90;;
21426;SDS011;10874;49.452;11.050;2023-08-12T10:21:01;4.73;;;3.43;;
21426;SDS011;10874;49.452;11.050;2023-08-12T10:23:28;3.70;;;3.40;;
21426;SDS011;10874;49.452;11.050;2023-08-12T10:25:56;3.20;;;3.00;;
21426;SDS011;10874;49.452;11.050;2023-08-12T10:28:24;3.63;;;3.33;;
21426;SDS011;10874;49.452;11.050;2023-08-12T10:30:51;3.53;;;3.23;;
21426;SDS011;10874;49.452;11.050;2023-08-12T10:33:18;3.00;;;2.80;;
21426;SDS011;10874;49.452;11.050;2023-08-12T10:35:46;3.40;;;3.10;;
21426;SDS011;10874;49.452;11.050;2023-08-12T10:38:14;3.70;;;3.40;;
21426;SDS011;10874;49.452;11.050;2023-08-12T10:40:43;4.07;;;3.40;;
21426;SDS011;10874;49.452;11.050;2023-08-12T10:43:11;3.50;;;3.20;;
21426;SDS011;10874;49.452;11.050;2023-08-12T10:45:42;3.43;;;3.20;;
21426;SDS011;10874;49.452;11.050;2023-08-12T10:48:15;5.97;;;3.60;;
21426;SDS011;10874;49.452;11.050;2023-08-12T10:50:46;3.20;;;3.00;;
21426;SDS011;10874;49.452;11.050;2023-08-12T10:53:25;4.53;;;3.93;;
21426;SDS011;10874;49.452;11.050;2023-08-12T10:55:56;4.47;;;4.07;;
21426;SDS011;10874;49.452;11.050;2023-08-12T10:58:24;4.00;;;3.60;;
21426;SDS011;10874;49.452;11.050;2023-08-12T11:00:53;4.10;;;3.70;;
21426;SDS011;10874;49.452;11.050;2023-08-12T11:03:20;3.77;;;3.47;;
21426;SDS011;10874;49.452;11.050;2023-08-12T11:05:47;9.77;;;6.20;;
21426;SDS011;10874;49.452;11.050;2023-08-12T11:08:14;21.37;;;18.53;;
21426;SDS011;10874;49.452;11.050;2023-08-12T11:10:41;5.10;;;4.60;;
21426;SDS011;10874;49.452;11.050;2023-08-12T11:13:09;7.28;;;5.45;;
21426;SDS011;10874;49.452;11.050;2023-08-12T11:15:37;4.45;;;4.10;;
21426;SDS011;10874;49.452;11.050;2023-08-12T11:18:15;4.18;;;3.63;;
21426;SDS011;10874;49.452;11.050;2023-08-12T11:20:43;4.45;;;4.05;;
21426;SDS011;10874;49.452;11.050;2023-08-12T11:23:10;4.80;;;4.28;;
21426;SDS011;10874;49.452;11.050;2023-08-12T11:25:38;4.53;;;3.90;;
21426;SDS011;10874;49.452;11.050;2023-08-12T11:28:05;4.45;;;4.10;;
21426;SDS011;10874;49.452;11.050;2023-08-12T11:30:32;4.13;;;3.72;;
21426;SDS011;10874;49.452;11.050;2023-08-12T11:33:00;4.10;;;3.80;;
21426;SDS011;10874;49.452;11.050;2023-08-12T11:35:27;3.95;;;3.58;;
21426;SDS011;10874;49.452;11.050;2023-08-12T11:37:54;4.38;;;3.97;;
21426;SDS011;10874;49.452;11.050;2023-08-12T11:40:23;3.97;;;3.67;;
21426;SDS011;10874;49.452;11.050;2023-08-12T11:42:50;3.83;;;3.53;;
21426;SDS011;10874;49.452;11.050;2023-08-12T11:45:20;4.22;;;3.92;;
21426;SDS011;10874;49.452;11.050;2023-08-12T11:47:47;4.70;;;3.70;;
21426;SDS011;10874;49.452;11.050;2023-08-12T11:50:20;4.28;;;3.92;;
21426;SDS011;10874;49.452;11.050;2023-08-12T11:52:47;4.55;;;4.15;;
21426;SDS011;10874;49.452;11.050;2023-08-12T11:55:14;3.95;;;3.65;;
21426;SDS011;10874;49.452;11.050;2023-08-12T11:57:42;4.43;;;3.63;;
21426;SDS011;10874;49.452;11.050;2023-08-12T12:00:10;4.90;;;4.50;;
21426;SDS011;10874;49.452;11.050;2023-08-12T12:02:46;4.55;;;4.15;;
21426;SDS011;10874;49.452;11.050;2023-08-12T12:05:13;6.00;;;5.40;;
21426;SDS011;10874;49.452;11.050;2023-08-12T12:07:40;12.90;;;10.35;;
21426;SDS011;10874;49.452;11.050;2023-08-12T12:10:07;43.35;;;39.70;;
21426;SDS011;10874;49.452;11.050;2023-08-12T12:12:36;4.85;;;4.10;;
21426;SDS011;10874;49.452;11.050;2023-08-12T12:15:03;522.78;;;445.00;;
21426;SDS011;10874;49.452;11.050;2023-08-12T12:17:30;308.73;;;280.65;;
21426;SDS011;10874;49.452;11.050;2023-08-12T12:19:58;646.28;;;588.53;;
21426;SDS011;10874;49.452;11.050;2023-08-12T12:22:29;1999.90;;;999.90;;
21426;SDS011;10874;49.452;11.050;2023-08-12T12:24:59;860.10;;;780.65;;
21426;SDS011;10874;49.452;11.050;2023-08-12T12:27:26;640.10;;;575.40;;
21426;SDS011;10874;49.452;11.050;2023-08-12T12:29:53;210.38;;;201.93;;
21426;SDS011;10874;49.452;11.050;2023-08-12T12:32:20;1146.68;;;991.08;;
21426;SDS011;10874;49.452;11.050;2023-08-12T12:34:48;855.85;;;762.03;;
21426;SDS011;10874;49.452;11.050;2023-08-12T12:37:14;1974.55;;;992.10;;
21426;SDS011;10874;49.452;11.050;2023-08-12T12:39:41;955.03;;;851.28;;
21426;SDS011;10874;49.452;11.050;2023-08-12T12:42:08;42.15;;;37.90;;
21426;SDS011;10874;49.452;11.050;2023-08-12T12:44:35;43.95;;;39.60;;
21426;SDS011;10874;49.452;11.050;2023-08-12T12:47:02;31.83;;;28.98;;
21426;SDS011;10874;49.452;11.050;2023-08-12T12:49:29;7.03;;;6.50;;
21426;SDS011;10874;49.452;11.050;2023-08-12T12:51:56;22.35;;;20.42;;
21426;SDS011;10874;49.452;11.050;2023-08-12T12:54:23;17.10;;;15.68;;
21426;SDS011;10874;49.452;11.050;2023-08-12T12:56:49;21.52;;;19.77;;
21426;SDS011;10874;49.452;11.050;2023-08-12T12:59:16;6.22;;;5.63;;
21426;SDS011;10874;49.452;11.050;2023-08-12T13:01:44;4.22;;;3.92;;
21426;SDS011;10874;49.452;11.050;2023-08-12T13:04:11;10.45;;;9.65;;
21426;SDS011;10874;49.452;11.050;2023-08-12T13:06:38;10.18;;;7.70;;
21426;SDS011;10874;49.452;11.050;2023-08-12T13:09:04;4.22;;;3.92;;
21426;SDS011;10874;49.452;11.050;2023-08-12T13:11:32;30.95;;;28.55;;
21426;SDS011;10874;49.452;11.050;2023-08-12T13:13:58;19.52;;;18.05;;
21426;SDS011;10874;49.452;11.050;2023-08-12T13:16:25;8.02;;;7.45;;
21426;SDS011;10874;49.452;11.050;2023-08-12T13:18:52;8.85;;;8.05;;
21426;SDS011;10874;49.452;11.050;2023-08-12T13:21:19;12.02;;;10.95;;
21426;SDS011;10874;49.452;11.050;2023-08-12T13:23:45;8.73;;;7.97;;
21426;SDS011;10874;49.452;11.050;2023-08-12T13:26:12;13.43;;;11.82;;
21426;SDS011;10874;49.452;11.050;2023-08-12T13:28:39;36.75;;;33.85;;
21426;SDS011;10874;49.452;11.050;2023-08-12T13:31:06;27.20;;;25.00;;
21426;SDS011;10874;49.452;11.050;2023-08-12T13:33:33;12.40;;;11.48;;
21426;SDS011;10874;49.452;11.050;2023-08-12T13:35:59;11.35;;;10.35;;
21426;SDS011;10874;49.452;11.050;2023-08-12T13:38:26;11.90;;;10.70;;
21426;SDS011;10874;49.452;11.050;2023-08-12T13:40:53;5.80;;;5.30;;
21426;SDS011;10874;49.452;11.050;2023-08-12T13:43:20;5.50;;;4.57;;
21426;SDS011;10874;49.452;11.050;2023-08-12T13:45:47;5.75;;;4.47;;
21426;SDS011;10874;49.452;11.050;2023-08-12T13:48:13;4.03;;;3.40;;
21426;SDS011;10874;49.452;11.050;2023-08-12T13:50:40;4.25;;;3.80;;
21426;SDS011;10874;49.452;11.050;2023-08-12T13:53:07;3.85;;;3.42;;
21426;SDS011;10874;49.452;11.050;2023-08-12T13:55:34;3.53;;;3.25;;
21426;SDS011;10874;49.452;11.050;2023-08-12T13:58:00;3.67;;;3.30;;
21426;SDS011;10874;49.452;11.050;2023-08-12T14:00:27;4.38;;;3.50;;
21426;SDS011;10874;49.452;11.050;2023-08-12T14:02:54;4.00;;;3.25;;
21426;SDS011;10874;49.452;11.050;2023-08-12T14:05:21;3.35;;;3.05;;
21426;SDS011;10874;49.452;11.050;2023-08-12T14:07:48;3.65;;;3.10;;
21426;SDS011;10874;49.452;11.050;2023-08-12T14:10:14;3.50;;;3.13;;
21426;SDS011;10874;49.452;11.050;2023-08-12T14:12:41;6.32;;;3.28;;
21426;SDS011;10874;49.452;11.050;2023-08-12T14:15:08;4.80;;;2.50;;
21426;SDS011;10874;49.452;11.050;2023-08-12T14:17:35;3.70;;;2.40;;
21426;SDS011;10874;49.452;11.050;2023-08-12T14:20:02;4.20;;;2.70;;
21426;SDS011;10874;49.452;11.050;2023-08-12T14:22:31;4.73;;;2.43;;
21426;SDS011;10874;49.452;11.050;2023-08-12T14:24:58;3.07;;;2.43;;
21426;SDS011;10874;49.452;11.050;2023-08-12T14:27:27;2.97;;;1.97;;
21426;SDS011;10874;49.452;11.050;2023-08-12T14:29:53;4.50;;;2.20;;
21426;SDS011;10874;49.452;11.050;2023-08-12T14:32:20;2.93;;;2.00;;
21426;SDS011;10874;49.452;11.050;2023-08-12T14:34:47;1.87;;;1.70;;
21426;SDS011;10874;49.452;11.050;2023-08-12T14:37:14;2.70;;;2.10;;